createdAt,value
2019-02-18T00:01:47.702Z,13.87
2019-02-18T00:04:18.199Z,11.17
2019-02-18T00:06:48.637Z,11.40
2019-02-18T00:09:19.077Z,12.50
2019-02-18T00:11:49.557Z,13.07
2019-02-18T00:14:20.085Z,11.60
2019-02-18T00:16:50.523Z,10.87
2019-02-18T00:19:21.063Z,12.57
2019-02-18T00:21:51.505Z,13.33
2019-02-18T00:24:21.990Z,12.27
2019-02-18T00:26:52.426Z,13.20
2019-02-18T00:29:22.908Z,10.93
2019-02-18T00:31:53.348Z,10.57
2019-02-18T00:34:23.784Z,10.77
2019-02-18T00:36:54.829Z,11.33
2019-02-18T00:39:25.262Z,10.93
2019-02-18T00:41:56.405Z,13.90
2019-02-18T00:44:27.227Z,11.47
2019-02-18T00:46:58.389Z,14.57
2019-02-18T00:49:29.160Z,12.23
2019-02-18T00:52:00.021Z,13.40
2019-02-18T00:54:30.461Z,13.77
2019-02-18T00:57:00.931Z,14.80
2019-02-18T00:59:31.371Z,12.50
2019-02-18T01:02:01.872Z,13.33
2019-02-18T01:04:32.309Z,11.37
2019-02-18T01:07:02.872Z,11.47
2019-02-18T01:09:33.315Z,10.73
2019-02-18T01:12:04.122Z,14.30
2019-02-18T01:14:34.606Z,14.30
2019-02-18T01:17:05.051Z,12.60
2019-02-18T01:19:36.609Z,13.57
2019-02-18T01:22:07.168Z,14.83
2019-02-18T01:24:37.610Z,14.70
2019-02-18T01:27:08.377Z,15.10
2019-02-18T01:29:39.306Z,13.43
2019-02-18T01:32:09.853Z,15.00
2019-02-18T01:34:40.289Z,13.63
2019-02-18T01:37:10.804Z,12.27
2019-02-18T01:39:41.242Z,13.97
2019-02-18T01:42:11.682Z,14.07
2019-02-18T01:44:42.537Z,13.87
2019-02-18T01:47:13.516Z,13.53
2019-02-18T01:49:44.003Z,13.27
2019-02-18T01:52:14.440Z,14.00
2019-02-18T01:54:44.877Z,13.83
2019-02-18T01:57:15.686Z,13.43
2019-02-18T01:59:46.122Z,15.17
2019-02-18T02:02:16.580Z,14.23
2019-02-18T02:04:47.048Z,11.10
2019-02-18T02:07:17.487Z,13.33
2019-02-18T02:09:49.167Z,13.57
2019-02-18T02:12:19.901Z,11.90
2019-02-18T02:14:50.343Z,15.67
2019-02-18T02:17:20.817Z,15.07
2019-02-18T02:19:51.290Z,13.10
2019-02-18T02:22:22.849Z,13.20
2019-02-18T02:24:53.365Z,11.47
2019-02-18T02:27:23.803Z,15.07
2019-02-18T02:29:54.282Z,15.37
2019-02-18T02:32:25.345Z,13.17
2019-02-18T02:34:55.776Z,14.10
2019-02-18T02:37:26.265Z,15.00
2019-02-18T02:39:56.710Z,14.57
2019-02-18T02:42:28.392Z,15.13
2019-02-18T02:44:59.014Z,16.77
2019-02-18T02:47:29.467Z,15.50
2019-02-18T02:50:00.763Z,15.50
2019-02-18T02:52:31.220Z,14.53
2019-02-18T02:55:01.655Z,14.03
2019-02-18T02:57:32.506Z,13.87
2019-02-18T03:00:02.953Z,16.03
2019-02-18T03:02:33.467Z,17.57
2019-02-18T03:05:03.912Z,16.40
2019-02-18T03:07:34.668Z,15.37
2019-02-18T03:10:05.333Z,13.70
2019-02-18T03:12:35.776Z,15.60
2019-02-18T03:15:06.777Z,16.03
2019-02-18T03:17:37.438Z,16.03
2019-02-18T03:20:08.042Z,15.13
2019-02-18T03:22:38.480Z,16.10
2019-02-18T03:25:25.691Z,14.87
2019-02-18T03:28:19.829Z,13.93
2019-02-18T03:31:05.996Z,15.17
2019-02-18T03:33:43.244Z,16.70
2019-02-18T03:36:13.733Z,15.37
2019-02-18T03:38:44.175Z,17.90
2019-02-18T03:41:14.999Z,16.73
2019-02-18T03:43:45.486Z,15.20
2019-02-18T03:46:15.920Z,13.50
2019-02-18T03:48:46.355Z,15.30
2019-02-18T03:51:17.170Z,16.63
2019-02-18T03:53:47.969Z,18.60
2019-02-18T03:56:18.409Z,15.43
2019-02-18T03:58:48.907Z,18.97
2019-02-18T04:01:19.358Z,17.83
2019-02-18T04:03:50.200Z,17.80
2019-02-18T04:06:20.711Z,16.23
2019-02-18T04:08:51.159Z,18.90
2019-02-18T04:11:22.041Z,14.07
2019-02-18T04:13:52.978Z,16.80
2019-02-18T04:16:23.688Z,19.00
2019-02-18T04:18:54.175Z,17.60
2019-02-18T04:21:24.623Z,17.03
2019-02-18T04:23:55.071Z,17.47
2019-02-18T04:26:25.860Z,16.83
2019-02-18T04:28:56.629Z,18.47
2019-02-18T04:31:27.079Z,18.03
2019-02-18T04:33:57.547Z,17.97
2019-02-18T04:36:28.282Z,16.40
2019-02-18T04:38:59.106Z,18.97
2019-02-18T04:41:29.549Z,17.60
2019-02-18T04:44:00.411Z,17.80
2019-02-18T04:46:30.854Z,20.17
2019-02-18T04:49:01.303Z,18.77
2019-02-18T04:51:31.775Z,20.17
2019-02-18T04:54:02.373Z,16.47
2019-02-18T04:56:33.139Z,18.80
2019-02-18T04:59:03.579Z,17.20
2019-02-18T05:01:34.367Z,20.70
2019-02-18T05:04:05.232Z,17.33
2019-02-18T05:06:35.662Z,18.10
2019-02-18T05:09:06.844Z,20.27
2019-02-18T05:11:37.832Z,18.47
2019-02-18T05:14:08.438Z,19.13
2019-02-18T05:16:39.309Z,20.33
2019-02-18T05:19:09.758Z,19.00
2019-02-18T05:21:40.886Z,17.33
2019-02-18T05:24:11.373Z,18.73
2019-02-18T05:26:42.143Z,21.73
2019-02-18T05:29:12.639Z,20.40
2019-02-18T05:31:43.085Z,17.87
2019-02-18T05:34:13.845Z,18.77
2019-02-18T05:36:44.519Z,18.60
2019-02-18T05:39:17.810Z,18.43
2019-02-18T05:41:47.104Z,21.90
2019-02-18T05:44:17.593Z,18.80
2019-02-18T05:46:48.394Z,18.63
2019-02-18T05:49:19.579Z,17.53
2019-02-18T05:51:50.321Z,18.43
2019-02-18T05:54:20.786Z,19.50
2019-02-18T05:56:51.210Z,17.40
2019-02-18T05:59:22.043Z,22.07
2019-02-18T06:01:52.514Z,20.03
2019-02-18T06:04:22.969Z,16.83
2019-02-18T06:06:54.752Z,17.73
2019-02-18T06:09:29.642Z,16.90
2019-02-18T06:11:58.386Z,19.93
2019-02-18T06:14:28.859Z,19.33
2019-02-18T06:16:59.306Z,20.13
2019-02-18T06:19:29.795Z,19.93
2019-02-18T06:22:00.619Z,18.33
2019-02-18T06:24:31.121Z,18.13
2019-02-18T06:27:01.569Z,19.37
2019-02-18T06:29:32.011Z,20.30
2019-02-18T06:32:02.496Z,17.23
2019-02-18T06:34:33.015Z,18.37
2019-02-18T06:37:03.460Z,16.03
2019-02-18T06:39:41.255Z,18.20
2019-02-18T06:42:06.420Z,18.73
2019-02-18T06:44:42.533Z,20.87
2019-02-18T06:47:16.215Z,15.70
2019-02-18T06:49:46.707Z,16.30
2019-02-18T06:52:17.432Z,21.77
2019-02-18T06:54:48.183Z,22.67
2019-02-18T06:57:46.634Z,17.30
2019-02-18T07:00:34.190Z,21.87
2019-02-18T07:03:09.719Z,19.90
2019-02-18T07:05:59.114Z,20.33
2019-02-18T07:08:47.167Z,21.30
2019-02-18T07:11:22.212Z,18.83
2019-02-18T07:13:52.709Z,24.40
2019-02-18T07:16:23.706Z,18.73
2019-02-18T07:18:54.150Z,20.70
2019-02-18T07:21:24.619Z,18.70
2019-02-18T07:23:55.467Z,23.03
2019-02-18T07:26:25.999Z,18.07
2019-02-18T07:28:56.617Z,18.40
2019-02-18T07:31:27.072Z,19.47
2019-02-18T07:33:57.826Z,18.20
2019-02-18T07:36:28.277Z,23.63
2019-02-18T07:38:59.051Z,18.83
2019-02-18T07:41:29.551Z,18.93
2019-02-18T07:44:00.374Z,19.23
2019-02-18T07:46:30.817Z,17.83
2019-02-18T07:49:01.321Z,22.00
2019-02-18T07:51:32.580Z,20.87
2019-02-18T07:54:03.042Z,20.23
2019-02-18T07:56:33.502Z,18.23
2019-02-18T07:59:03.948Z,16.90
2019-02-18T08:01:34.443Z,21.83
2019-02-18T08:04:04.887Z,20.67
2019-02-18T08:06:35.326Z,21.50
2019-02-18T08:09:06.898Z,18.83
2019-02-18T08:11:37.419Z,21.17
2019-02-18T08:14:07.921Z,22.63
2019-02-18T08:16:38.369Z,19.83
2019-02-18T08:19:09.775Z,22.87
2019-02-18T08:21:40.266Z,19.67
2019-02-18T08:24:10.707Z,21.53
2019-02-18T08:26:44.025Z,19.93
2019-02-18T08:29:13.789Z,20.10
2019-02-18T08:31:44.226Z,20.00
2019-02-18T08:34:14.677Z,20.40
2019-02-18T08:36:45.439Z,21.40
2019-02-18T08:39:15.892Z,19.83
2019-02-18T08:41:46.333Z,20.40
2019-02-18T08:44:16.822Z,18.33
2019-02-18T08:46:47.273Z,18.47
2019-02-18T08:49:17.735Z,22.90
2019-02-18T08:51:48.541Z,21.23
2019-02-18T08:54:18.984Z,20.67
2019-02-18T08:56:49.428Z,20.03
2019-02-18T08:59:19.918Z,22.30
2019-02-18T09:01:50.363Z,23.60
2019-02-18T09:04:21.198Z,19.33
2019-02-18T09:06:51.845Z,17.23
2019-02-18T09:09:22.311Z,25.73
2019-02-18T09:11:52.913Z,20.93
2019-02-18T09:14:23.400Z,20.97
2019-02-18T09:16:54.279Z,18.23
2019-02-18T09:19:24.985Z,19.63
2019-02-18T09:22:23.691Z,23.87
2019-02-18T09:25:09.354Z,23.03
2019-02-18T09:27:39.823Z,22.77
2019-02-18T09:30:10.298Z,18.77
2019-02-18T09:32:40.819Z,20.03
2019-02-18T09:35:11.263Z,17.93
2019-02-18T09:37:41.752Z,19.13
2019-02-18T09:40:12.251Z,18.53
2019-02-18T09:42:42.698Z,18.83
2019-02-18T09:45:14.762Z,19.97
2019-02-18T09:47:45.612Z,18.90
2019-02-18T09:50:16.063Z,20.07
2019-02-18T09:52:46.544Z,19.13
2019-02-18T09:55:16.999Z,18.83
2019-02-18T09:57:47.506Z,17.37
2019-02-18T10:00:17.953Z,20.33
2019-02-18T10:02:48.403Z,18.13
2019-02-18T10:05:19.481Z,20.87
2019-02-18T10:07:49.934Z,18.30
2019-02-18T10:10:20.447Z,19.70
2019-02-18T10:12:50.903Z,20.83
2019-02-18T10:15:21.395Z,18.57
2019-02-18T10:17:51.843Z,21.80
2019-02-18T10:20:22.297Z,17.50
2019-02-18T10:22:52.800Z,17.03
2019-02-18T10:25:23.701Z,20.00
2019-02-18T10:27:54.311Z,17.83
2019-02-18T10:30:25.771Z,18.63
2019-02-18T10:32:56.227Z,19.47
2019-02-18T10:35:26.720Z,20.57
2019-02-18T10:37:57.171Z,20.23
2019-02-18T10:40:27.627Z,25.17
2019-02-18T10:42:58.176Z,18.90
2019-02-18T10:45:28.653Z,19.33
2019-02-18T10:47:59.268Z,21.47
2019-02-18T10:50:29.745Z,17.03
2019-02-18T10:53:00.580Z,17.27
2019-02-18T10:55:31.600Z,19.83
2019-02-18T10:58:02.211Z,18.17
2019-02-18T11:00:32.662Z,23.10
2019-02-18T11:03:03.899Z,18.20
2019-02-18T11:05:34.354Z,18.87
2019-02-18T11:08:04.803Z,22.10
2019-02-18T11:10:35.592Z,18.30
2019-02-18T11:13:06.892Z,19.77
2019-02-18T11:15:37.342Z,22.93
2019-02-18T11:18:07.816Z,19.67
2019-02-18T11:20:38.261Z,23.60
2019-02-18T11:23:08.756Z,20.20
2019-02-18T11:25:39.200Z,21.77
2019-02-18T11:28:10.197Z,20.17
2019-02-18T11:30:40.676Z,18.07
2019-02-18T11:33:11.128Z,19.23
2019-02-18T11:35:41.621Z,18.33
2019-02-18T11:38:12.232Z,20.10
2019-02-18T11:40:44.337Z,19.50
2019-02-18T11:43:15.215Z,18.40
2019-02-18T11:45:45.659Z,19.30
2019-02-18T11:48:16.156Z,19.20
2019-02-18T11:50:46.681Z,20.50
2019-02-18T11:53:17.136Z,20.47
2019-02-18T11:55:48.127Z,19.37
2019-02-18T11:58:18.574Z,18.20
2019-02-18T12:00:49.019Z,17.60
2019-02-18T12:03:19.511Z,15.93
2019-02-18T12:05:50.232Z,21.47
2019-02-18T12:08:20.684Z,18.47
2019-02-18T12:10:51.214Z,19.30
2019-02-18T12:13:21.971Z,21.03
2019-02-18T12:15:52.810Z,18.30
2019-02-18T12:18:23.855Z,19.20
2019-02-18T12:20:54.305Z,18.03
2019-02-18T12:23:24.797Z,19.93
2019-02-18T12:25:55.247Z,17.57
2019-02-18T12:28:25.710Z,18.63
2019-02-18T12:30:56.202Z,17.40
2019-02-18T12:33:27.031Z,19.00
2019-02-18T12:35:57.655Z,19.73
2019-02-18T12:38:28.523Z,17.53
2019-02-18T12:40:59.341Z,26.43
2019-02-18T12:43:30.609Z,18.43
2019-02-18T12:46:01.449Z,18.63
2019-02-18T12:48:31.901Z,18.30
2019-02-18T12:51:03.373Z,20.63
2019-02-18T12:53:33.826Z,17.60
2019-02-18T12:56:04.283Z,16.77
2019-02-18T12:58:34.786Z,18.30
2019-02-18T13:01:07.240Z,17.97
2019-02-18T13:03:37.691Z,17.20
2019-02-18T13:06:08.184Z,17.63
2019-02-18T13:08:38.635Z,19.77
2019-02-18T13:11:09.111Z,16.80
2019-02-18T13:13:39.728Z,16.47
2019-02-18T13:16:10.371Z,19.33
2019-02-18T13:18:41.611Z,16.67
2019-02-18T13:21:12.375Z,17.20
2019-02-18T13:23:44.063Z,15.20
2019-02-18T13:26:14.560Z,21.07
2019-02-18T13:28:45.003Z,20.97
2019-02-18T13:31:15.833Z,16.47
2019-02-18T13:33:46.307Z,18.33
2019-02-18T13:36:17.137Z,15.40
2019-02-18T13:38:47.611Z,16.23
2019-02-18T13:41:18.065Z,15.23
2019-02-18T13:43:48.556Z,17.73
2019-02-18T13:46:18.998Z,17.07
2019-02-18T13:48:49.454Z,16.60
2019-02-18T13:51:24.347Z,16.63
2019-02-18T13:53:52.310Z,16.80
2019-02-18T13:56:22.797Z,16.03
2019-02-18T13:58:53.674Z,18.77
2019-02-18T14:01:24.543Z,13.47
2019-02-18T14:03:55.046Z,15.73
2019-02-18T14:06:25.497Z,14.83
2019-02-18T14:08:56.306Z,17.23
2019-02-18T14:11:27.517Z,16.47
2019-02-18T14:13:57.964Z,15.63
2019-02-18T14:16:28.447Z,17.30
2019-02-18T14:18:58.892Z,19.60
2019-02-18T14:21:29.343Z,16.87
2019-02-18T14:23:59.818Z,16.53
2019-02-18T14:26:30.262Z,17.77
2019-02-18T14:29:01.204Z,17.53
2019-02-18T14:31:31.664Z,16.23
2019-02-18T14:34:02.513Z,22.33
2019-02-18T14:36:32.957Z,15.93
2019-02-18T14:39:05.164Z,17.63
2019-02-18T14:41:36.568Z,17.37
2019-02-18T14:44:07.296Z,17.77
2019-02-18T14:46:38.143Z,16.20
2019-02-18T14:49:08.656Z,15.70
2019-02-18T14:51:39.281Z,18.20
2019-02-18T14:54:10.199Z,19.20
2019-02-18T14:56:42.014Z,19.10
2019-02-18T14:59:12.466Z,16.97
2019-02-18T15:01:42.942Z,22.00
2019-02-18T15:04:13.387Z,17.70
2019-02-18T15:06:43.878Z,15.83
2019-02-18T15:09:14.938Z,18.70
2019-02-18T15:11:45.493Z,15.93
2019-02-18T15:14:15.968Z,14.70
2019-02-18T15:16:46.432Z,16.03
2019-02-18T15:19:17.107Z,16.73
2019-02-18T15:21:47.555Z,17.10
2019-02-18T15:24:18.006Z,16.13
2019-02-18T15:26:48.866Z,14.53
2019-02-18T15:29:20.259Z,15.17
2019-02-18T15:31:51.284Z,18.83
2019-02-18T15:34:21.759Z,18.57
2019-02-18T15:36:52.208Z,13.77
2019-02-18T15:39:23.662Z,15.40
2019-02-18T15:41:54.188Z,15.67
2019-02-18T15:44:24.746Z,14.13
2019-02-18T15:46:55.725Z,14.30
2019-02-18T15:49:26.190Z,15.53
2019-02-18T15:51:56.633Z,15.77
2019-02-18T15:54:28.871Z,15.63
2019-02-18T15:56:59.305Z,13.57
2019-02-18T15:59:29.774Z,15.93
2019-02-18T16:02:00.220Z,16.97
2019-02-18T16:04:31.067Z,14.30
2019-02-18T16:07:01.525Z,15.43
2019-02-18T16:09:31.978Z,18.23
2019-02-18T16:12:02.666Z,15.20
2019-02-18T16:14:33.378Z,16.40
2019-02-18T16:17:03.939Z,16.23
2019-02-18T16:19:34.463Z,17.13
2019-02-18T16:22:04.919Z,14.87
2019-02-18T16:24:35.408Z,16.93
2019-02-18T16:27:05.883Z,20.20
2019-02-18T16:29:36.326Z,16.77
2019-02-18T16:32:06.820Z,15.87
2019-02-18T16:34:37.269Z,16.77
2019-02-18T16:37:08.101Z,20.53
2019-02-18T16:39:38.942Z,19.60
2019-02-18T16:42:09.926Z,16.17
2019-02-18T16:44:41.034Z,20.93
2019-02-18T16:47:11.575Z,18.03
2019-02-18T16:49:43.015Z,20.43
2019-02-18T16:52:14.698Z,18.03
2019-02-18T16:54:45.149Z,18.97
2019-02-18T16:57:15.946Z,17.20
2019-02-18T16:59:46.554Z,17.57
2019-02-18T17:02:17.012Z,19.60
2019-02-18T17:04:47.869Z,17.97
2019-02-18T17:07:18.315Z,18.23
2019-02-18T17:09:49.144Z,20.03
2019-02-18T17:12:19.937Z,21.07
2019-02-18T17:14:50.383Z,22.80
2019-02-18T17:17:20.858Z,21.03
2019-02-18T17:19:51.571Z,17.23
2019-02-18T17:22:22.385Z,17.70
2019-02-18T17:24:52.962Z,19.03
2019-02-18T17:27:23.403Z,23.77
2019-02-18T17:29:53.847Z,21.90
2019-02-18T17:32:24.722Z,23.67
2019-02-18T17:34:55.175Z,17.87
2019-02-18T17:37:25.627Z,17.73
2019-02-18T17:39:56.522Z,18.73
2019-02-18T17:42:27.005Z,18.10
2019-02-18T17:44:57.504Z,21.00
2019-02-18T17:47:28.017Z,24.80
2019-02-18T17:49:58.469Z,19.97
2019-02-18T17:52:29.923Z,20.13
2019-02-18T17:55:00.442Z,17.07
2019-02-18T17:57:31.274Z,19.57
2019-02-18T18:00:02.213Z,19.27
2019-02-18T18:02:32.771Z,19.83
2019-02-18T18:05:03.219Z,19.00
2019-02-18T18:07:34.572Z,18.27
2019-02-18T18:10:05.862Z,18.70
2019-02-18T18:12:37.135Z,21.50
2019-02-18T18:15:09.539Z,19.03
2019-02-18T18:17:40.596Z,20.67
2019-02-18T18:20:11.601Z,21.57
2019-02-18T18:22:42.071Z,21.07
2019-02-18T18:25:12.866Z,25.13
2019-02-18T18:27:43.308Z,22.65
2019-02-18T18:30:14.389Z,22.87
2019-02-18T18:32:45.348Z,21.63
2019-02-18T18:35:15.967Z,22.20
2019-02-18T18:37:46.439Z,20.70
2019-02-18T18:40:16.983Z,23.33
2019-02-18T18:42:47.423Z,21.10
2019-02-18T18:45:17.895Z,23.53
2019-02-18T18:47:48.413Z,20.23
2019-02-18T18:50:20.224Z,24.43
2019-02-18T18:52:53.002Z,19.80
2019-02-18T18:55:25.751Z,23.47
2019-02-18T18:57:58.276Z,19.53
2019-02-18T19:00:30.645Z,28.03
2019-02-18T19:03:02.220Z,21.73
2019-02-18T19:05:32.778Z,19.57
2019-02-18T19:08:03.244Z,21.17
2019-02-18T19:10:36.316Z,18.63
2019-02-18T19:13:08.110Z,20.73
2019-02-18T19:15:39.195Z,21.43
2019-02-18T19:18:09.634Z,21.37
2019-02-18T19:20:40.123Z,19.73
2019-02-18T19:23:10.561Z,23.70
2019-02-18T19:25:41.044Z,20.90
2019-02-18T19:28:11.917Z,24.63
2019-02-18T19:30:42.375Z,19.13
2019-02-18T19:33:13.862Z,21.57
2019-02-18T19:35:45.048Z,22.30
2019-02-18T19:38:17.478Z,20.13
2019-02-18T19:40:48.307Z,18.83
2019-02-18T19:43:19.198Z,19.00
2019-02-18T19:45:51.132Z,18.77
2019-02-18T19:48:21.592Z,19.40
2019-02-18T19:50:52.094Z,26.10
2019-02-18T19:53:22.606Z,16.67
2019-02-18T19:55:56.018Z,19.53
2019-02-18T19:58:26.551Z,20.23
2019-02-18T20:00:59.186Z,18.00
2019-02-18T20:03:29.646Z,17.47
2019-02-18T20:06:00.738Z,17.67
2019-02-18T20:08:31.214Z,19.97
2019-02-18T20:11:01.661Z,17.93
2019-02-18T20:13:32.161Z,21.97
2019-02-18T20:16:03.032Z,23.03
2019-02-18T20:18:35.771Z,21.57
2019-02-18T20:21:07.008Z,17.10
2019-02-18T20:23:38.245Z,27.10
2019-02-18T20:26:09.057Z,20.17
2019-02-18T20:28:39.958Z,20.37
2019-02-18T20:31:10.397Z,18.67
2019-02-18T20:33:45.742Z,21.90
2019-02-18T20:36:17.306Z,21.97
2019-02-18T20:38:48.509Z,19.73
2019-02-18T20:41:18.994Z,21.07
2019-02-18T20:43:50.493Z,20.00
2019-02-18T20:46:22.647Z,18.77
2019-02-18T20:48:53.174Z,18.90
2019-02-18T20:51:23.644Z,17.70
2019-02-18T20:53:54.426Z,22.47
2019-02-18T20:56:25.125Z,20.93
2019-02-18T20:58:55.581Z,17.87
2019-02-18T21:01:26.078Z,18.20
2019-02-18T21:03:59.086Z,19.13
2019-02-18T21:06:30.866Z,15.03
2019-02-18T21:09:01.387Z,17.13
2019-02-18T21:11:32.280Z,15.57
2019-02-18T21:14:04.571Z,16.63
2019-02-18T21:16:36.565Z,18.83
2019-02-18T21:19:07.046Z,17.57
2019-02-18T21:21:37.780Z,22.70
2019-02-18T21:24:08.291Z,17.80
2019-02-18T21:26:39.106Z,18.60
2019-02-18T21:29:09.540Z,19.47
2019-02-18T21:31:39.980Z,18.70
2019-02-18T21:34:10.485Z,16.73
2019-02-18T21:36:41.289Z,18.90
2019-02-18T21:39:15.039Z,18.60
2019-02-18T21:41:45.526Z,18.53
2019-02-18T21:44:24.710Z,22.20
2019-02-18T21:46:48.608Z,19.60
2019-02-18T21:49:19.124Z,17.53
2019-02-18T21:51:49.580Z,16.30
2019-02-18T21:54:20.315Z,14.97
2019-02-18T21:56:51.248Z,14.93
2019-02-18T21:59:22.113Z,18.93
2019-02-18T22:01:52.936Z,17.27
2019-02-18T22:04:24.104Z,15.90
2019-02-18T22:06:54.550Z,18.40
2019-02-18T22:09:25.376Z,18.73
2019-02-18T22:11:56.035Z,16.13
2019-02-18T22:14:33.203Z,19.20
2019-02-18T22:16:59.060Z,18.67
2019-02-18T22:19:29.538Z,19.70
2019-02-18T22:21:59.972Z,16.77
2019-02-18T22:24:30.785Z,15.57
2019-02-18T22:27:01.288Z,15.57
2019-02-18T22:29:32.162Z,13.30
2019-02-18T22:32:03.927Z,15.00
2019-02-18T22:34:34.409Z,16.90
2019-02-18T22:37:05.202Z,14.73
2019-02-18T22:39:35.640Z,12.90
2019-02-18T22:42:06.525Z,12.93
2019-02-18T22:44:41.981Z,19.23
2019-02-18T22:47:09.594Z,17.33
2019-02-18T22:49:40.077Z,13.67
2019-02-18T22:52:10.501Z,15.37
2019-02-18T22:54:40.955Z,14.33
2019-02-18T22:57:12.012Z,13.43
2019-02-18T22:59:42.435Z,13.00
2019-02-18T23:02:14.219Z,14.87
2019-02-18T23:04:45.055Z,15.53
2019-02-18T23:07:15.520Z,16.07
2019-02-18T23:09:46.113Z,15.20
2019-02-18T23:12:16.588Z,16.33
2019-02-18T23:14:50.521Z,16.33
2019-02-18T23:17:19.155Z,17.63
2019-02-18T23:19:50.002Z,19.40
2019-02-18T23:22:20.431Z,14.83
2019-02-18T23:24:52.008Z,13.87
2019-02-18T23:27:22.497Z,14.23
2019-02-18T23:29:52.999Z,13.23
2019-02-18T23:32:23.772Z,13.43
2019-02-18T23:34:54.435Z,15.20
2019-02-18T23:37:24.861Z,13.07
2019-02-18T23:39:55.663Z,14.77
2019-02-18T23:42:26.499Z,12.73
2019-02-18T23:44:59.343Z,13.00
2019-02-18T23:47:29.428Z,11.43
2019-02-18T23:50:00.306Z,12.03
2019-02-18T23:52:30.751Z,11.57
2019-02-18T23:55:01.190Z,12.37
2019-02-18T23:57:31.698Z,13.13
